Terminal Aerodrome Forecast
Issued by NWS Knoxville/Tri Cities, TN

Current Version | Previous Version | Text Only | Print | Product List | Glossary On
Versions: 1 2 3 4 5 6 7 8 9 10 11 12 13 14 15 16 17 18 19 20 21 22 23 24 25 26
000
FTUS44 KMRX 010207 AAA
TAFTRI
TAF AMD
KTRI 010207Z 0102/0124 32012G25KT 6SM -RA BR SCT025 OVC045
      TEMPO 0102/0106 4SM -RA BR OVC025
     FM010700 28010KT 2SM -SN BR BKN005 OVC015
     FM011500 33012KT 3SM -SN BR OVC010
     FM011800 30010G20KT 5SM -RA BKN020=

USA.gov is the U.S. government's official web portal to all federal, state and local government web resources and services.